createdAt,value
2022-07-30T00:01:14.058Z,14.52
2022-07-30T00:03:40.684Z,14.23
2022-07-30T00:06:07.162Z,11.60
2022-07-30T00:08:34.081Z,10.45
2022-07-30T00:11:00.647Z,12.15
2022-07-30T00:13:27.312Z,14.60
2022-07-30T00:15:54.199Z,11.27
2022-07-30T00:18:21.209Z,13.90
2022-07-30T00:20:48.922Z,12.45
2022-07-30T00:23:15.626Z,14.23
2022-07-30T00:25:42.231Z,11.32
2022-07-30T00:28:08.687Z,14.27
2022-07-30T00:30:35.462Z,12.60
2022-07-30T00:33:02.240Z,11.88
2022-07-30T00:35:28.875Z,10.20
2022-07-30T00:37:55.345Z,13.38
2022-07-30T00:40:22.099Z,12.80
2022-07-30T00:42:48.636Z,15.25
2022-07-30T00:45:16.916Z,9.85
2022-07-30T00:47:44.297Z,11.90
2022-07-30T00:50:13.578Z,11.65
2022-07-30T00:52:41.246Z,13.80
2022-07-30T00:55:10.242Z,13.13
2022-07-30T00:57:37.095Z,10.18
2022-07-30T01:00:09.386Z,11.25
2022-07-30T01:05:02.748Z,11.25
2022-07-30T01:07:29.298Z,12.18
2022-07-30T01:09:55.911Z,15.65
2022-07-30T01:12:26.193Z,11.55
2022-07-30T01:14:55.417Z,13.23
2022-07-30T01:17:21.988Z,15.48
2022-07-30T01:19:56.307Z,10.25
2022-07-30T01:22:30.326Z,13.10
2022-07-30T01:25:03.512Z,14.40
2022-07-30T01:27:38.484Z,10.35
2022-07-30T01:30:06.379Z,10.95
2022-07-30T01:32:36.613Z,13.63
2022-07-30T01:37:34.863Z,11.60
2022-07-30T01:40:01.707Z,13.10
2022-07-30T01:42:29.808Z,17.13
2022-07-30T01:44:58.435Z,10.68
2022-07-30T01:47:25.867Z,11.35
2022-07-30T01:49:54.709Z,14.57
2022-07-30T01:52:23.333Z,15.25
2022-07-30T01:54:52.374Z,12.07
2022-07-30T01:57:21.102Z,13.65
2022-07-30T01:59:52.033Z,11.25
2022-07-30T02:02:18.700Z,11.07
2022-07-30T02:04:45.299Z,10.90
2022-07-30T02:07:22.948Z,13.88
2022-07-30T02:09:58.012Z,16.00
2022-07-30T02:12:28.646Z,11.57
2022-07-30T02:15:06.700Z,12.85
2022-07-30T02:17:39.737Z,11.98
2022-07-30T02:20:13.485Z,11.23
2022-07-30T02:22:45.078Z,12.52
2022-07-30T02:25:15.216Z,15.77
2022-07-30T02:30:11.174Z,10.98
2022-07-30T02:32:40.841Z,13.55
2022-07-30T02:35:27.392Z,10.65
2022-07-30T02:37:54.806Z,11.35
2022-07-30T02:40:23.363Z,11.93
2022-07-30T02:42:52.585Z,14.63
2022-07-30T02:45:20.092Z,12.05
2022-07-30T02:47:51.091Z,22.20
2022-07-30T02:50:20.095Z,11.52
2022-07-30T02:52:47.761Z,13.65
2022-07-30T02:55:17.819Z,12.93
2022-07-30T02:57:46.125Z,13.10
2022-07-30T03:00:13.058Z,11.02
2022-07-30T03:02:42.853Z,13.70
2022-07-30T03:05:11.598Z,9.75
2022-07-30T03:07:40.358Z,12.88
2022-07-30T03:10:08.552Z,11.07
2022-07-30T03:12:37.193Z,12.38
2022-07-30T03:15:04.134Z,10.30
2022-07-30T03:17:37.441Z,12.57
2022-07-30T03:20:08.894Z,12.77
2022-07-30T03:22:40.241Z,12.32
2022-07-30T03:25:08.207Z,16.35
2022-07-30T03:27:38.104Z,10.95
2022-07-30T03:30:06.094Z,11.25
2022-07-30T03:32:34.370Z,12.23
2022-07-30T03:35:05.895Z,15.55
2022-07-30T03:37:35.563Z,11.00
2022-07-30T03:40:02.701Z,12.50
2022-07-30T03:42:29.630Z,12.30
2022-07-30T03:44:57.311Z,14.50
2022-07-30T03:47:24.741Z,17.85
2022-07-30T03:49:52.512Z,18.70
2022-07-30T03:52:20.003Z,18.95
2022-07-30T03:54:47.565Z,17.42
2022-07-30T03:57:17.581Z,19.10
2022-07-30T03:59:51.673Z,20.23
2022-07-30T04:02:18.438Z,13.60
2022-07-30T04:04:44.889Z,20.08
2022-07-30T04:07:11.358Z,16.17
2022-07-30T04:09:37.914Z,15.55
2022-07-30T04:12:04.589Z,16.63
2022-07-30T04:14:42.342Z,15.80
2022-07-30T04:17:25.928Z,15.38
2022-07-30T04:19:56.345Z,14.18
2022-07-30T04:22:33.886Z,15.63
2022-07-30T04:25:02.222Z,14.23
2022-07-30T04:27:31.255Z,13.18
2022-07-30T04:29:57.868Z,14.38
2022-07-30T04:32:24.384Z,15.27
2022-07-30T04:34:53.859Z,12.55
2022-07-30T04:37:22.911Z,14.05
2022-07-30T04:39:51.422Z,13.27
2022-07-30T04:42:17.865Z,14.52
2022-07-30T04:44:44.343Z,12.45
2022-07-30T04:47:10.823Z,12.35
2022-07-30T04:49:39.098Z,13.68
2022-07-30T04:52:06.747Z,10.07
2022-07-30T04:54:38.916Z,10.48
2022-07-30T04:57:07.135Z,10.48
2022-07-30T04:59:37.211Z,11.88
2022-07-30T05:02:05.812Z,9.25
2022-07-30T05:04:33.342Z,11.68
2022-07-30T05:07:01.688Z,12.32
2022-07-30T05:09:31.643Z,9.65
2022-07-30T05:11:59.311Z,10.63
2022-07-30T05:14:26.868Z,11.77
2022-07-30T05:16:54.774Z,14.10
2022-07-30T05:19:21.722Z,11.10
2022-07-30T05:21:48.224Z,15.35
2022-07-30T05:24:15.079Z,9.35
2022-07-30T05:26:41.516Z,10.43
2022-07-30T05:29:08.282Z,12.73
2022-07-30T05:31:35.577Z,9.50
2022-07-30T05:34:04.970Z,15.27
2022-07-30T05:36:31.553Z,11.02
2022-07-30T05:38:58.213Z,12.65
2022-07-30T05:41:32.373Z,8.95
2022-07-30T05:44:00.240Z,11.63
2022-07-30T05:46:27.113Z,10.68
2022-07-30T05:48:53.993Z,10.32
2022-07-30T05:51:22.072Z,10.25
2022-07-30T05:53:48.602Z,12.55
2022-07-30T05:56:15.057Z,13.38
2022-07-30T05:58:41.584Z,9.63
2022-07-30T06:01:08.043Z,9.73
2022-07-30T06:03:35.113Z,9.80
2022-07-30T06:06:05.595Z,13.93
2022-07-30T06:08:32.248Z,10.85
2022-07-30T06:10:58.767Z,8.38
2022-07-30T06:13:25.772Z,11.00
2022-07-30T06:15:52.726Z,9.68
2022-07-30T06:18:19.296Z,12.27
2022-07-30T06:20:51.682Z,12.75
2022-07-30T06:23:18.380Z,9.25
2022-07-30T06:25:44.961Z,11.57
2022-07-30T06:28:35.910Z,11.82
2022-07-30T06:30:57.938Z,13.48
2022-07-30T06:33:24.338Z,9.00
2022-07-30T06:35:50.794Z,8.60
2022-07-30T06:38:17.426Z,10.32
2022-07-30T06:40:43.859Z,10.25
2022-07-30T06:43:10.395Z,10.60
2022-07-30T06:45:36.867Z,9.10
2022-07-30T06:48:03.616Z,10.10
2022-07-30T06:50:30.086Z,14.10
2022-07-30T06:52:56.512Z,12.88
2022-07-30T06:55:22.974Z,10.77
2022-07-30T06:57:49.448Z,15.27
2022-07-30T07:00:16.135Z,10.60
2022-07-30T07:02:43.369Z,10.68
2022-07-30T07:05:11.010Z,11.35
2022-07-30T07:07:42.193Z,10.88
2022-07-30T07:10:13.061Z,11.23
2022-07-30T07:12:39.519Z,11.57
2022-07-30T07:15:06.510Z,14.88
2022-07-30T07:17:32.947Z,11.48
2022-07-30T07:20:02.365Z,11.82
2022-07-30T07:22:29.757Z,10.63
2022-07-30T07:24:56.367Z,15.85
2022-07-30T07:27:22.973Z,14.90
2022-07-30T07:30:04.995Z,10.57
2022-07-30T07:32:33.678Z,9.68
2022-07-30T07:35:00.233Z,14.93
2022-07-30T07:37:27.008Z,10.55
2022-07-30T07:39:53.800Z,11.73
2022-07-30T07:42:20.235Z,13.02
2022-07-30T07:44:46.695Z,9.88
2022-07-30T07:47:13.173Z,9.80
2022-07-30T07:49:39.614Z,10.65
2022-07-30T07:52:06.501Z,12.15
2022-07-30T07:54:33.099Z,9.73
2022-07-30T07:57:00.784Z,12.45
2022-07-30T07:59:40.227Z,10.73
2022-07-30T08:02:08.061Z,10.10
2022-07-30T08:04:35.336Z,13.00
2022-07-30T08:07:02.404Z,12.65
2022-07-30T08:09:43.816Z,14.85
2022-07-30T08:12:12.510Z,13.60
2022-07-30T08:14:39.094Z,10.43
2022-07-30T08:17:06.185Z,11.82
2022-07-30T08:19:33.489Z,12.00
2022-07-30T08:22:00.108Z,10.45
2022-07-30T08:24:26.902Z,15.45
2022-07-30T08:26:53.511Z,11.88
2022-07-30T08:29:20.013Z,14.23
2022-07-30T08:31:46.497Z,9.75
2022-07-30T08:34:13.590Z,12.48
2022-07-30T08:36:40.267Z,14.02
2022-07-30T08:39:06.738Z,12.60
2022-07-30T08:41:33.340Z,12.38
2022-07-30T08:44:01.575Z,11.32
2022-07-30T08:46:31.289Z,17.30
2022-07-30T08:49:00.591Z,12.73
2022-07-30T08:51:35.305Z,12.45
2022-07-30T08:54:03.655Z,12.40
2022-07-30T08:56:32.596Z,11.20
2022-07-30T08:59:00.303Z,10.45
2022-07-30T09:01:27.547Z,11.65
2022-07-30T09:03:54.131Z,11.63
2022-07-30T09:06:20.676Z,17.20
2022-07-30T09:08:47.301Z,11.85
2022-07-30T09:11:14.078Z,9.07
2022-07-30T09:13:42.428Z,10.77
2022-07-30T09:16:20.922Z,13.05
2022-07-30T09:18:48.001Z,9.52
2022-07-30T09:21:15.758Z,12.88
2022-07-30T09:23:54.998Z,10.48
2022-07-30T09:26:21.486Z,8.93
2022-07-30T09:28:48.013Z,14.35
2022-07-30T09:31:15.834Z,13.48
2022-07-30T09:33:44.623Z,11.45
2022-07-30T09:36:18.431Z,11.52
2022-07-30T09:38:49.401Z,9.45
2022-07-30T09:41:37.687Z,12.45
2022-07-30T09:44:06.253Z,14.02
2022-07-30T09:46:45.417Z,9.60
2022-07-30T09:49:17.216Z,13.13
2022-07-30T09:51:55.805Z,9.82
2022-07-30T09:54:23.549Z,13.68
2022-07-30T09:57:25.577Z,13.07
2022-07-30T10:00:16.426Z,14.35
2022-07-30T10:02:45.339Z,12.25
2022-07-30T10:05:15.949Z,9.37
2022-07-30T10:07:52.604Z,10.77
2022-07-30T10:10:25.583Z,17.60
2022-07-30T10:13:01.175Z,9.82
2022-07-30T10:15:33.294Z,10.13
2022-07-30T10:18:02.615Z,10.85
2022-07-30T10:20:33.859Z,11.13
2022-07-30T10:23:08.084Z,13.65
2022-07-30T10:25:36.777Z,10.63
2022-07-30T10:28:17.528Z,14.32
2022-07-30T10:30:45.260Z,12.60
2022-07-30T10:33:36.265Z,10.57
2022-07-30T10:35:59.198Z,13.43
2022-07-30T10:38:32.485Z,9.25
2022-07-30T10:41:42.550Z,10.93
2022-07-30T10:44:31.163Z,11.50
2022-07-30T10:47:09.202Z,10.43
2022-07-30T10:49:41.037Z,12.02
2022-07-30T10:52:09.597Z,8.88
2022-07-30T10:54:47.229Z,9.25
2022-07-30T10:57:31.856Z,11.65
2022-07-30T11:00:00.005Z,12.45
2022-07-30T11:02:30.672Z,8.90
2022-07-30T11:07:47.655Z,17.40
2022-07-30T11:10:37.944Z,10.02
2022-07-30T11:15:51.571Z,8.63
2022-07-30T11:18:18.018Z,9.07
2022-07-30T11:21:20.673Z,12.48
2022-07-30T11:23:48.396Z,13.90
2022-07-30T11:26:52.612Z,12.43
2022-07-30T11:29:50.498Z,11.95
2022-07-30T11:32:28.116Z,9.43
2022-07-30T11:35:17.531Z,10.40
2022-07-30T11:38:01.932Z,9.13
2022-07-30T11:46:07.150Z,11.30
2022-07-30T11:48:39.146Z,8.55
2022-07-30T11:51:05.919Z,11.57
2022-07-30T11:53:33.044Z,8.35
2022-07-30T11:56:02.274Z,9.23
2022-07-30T11:58:29.961Z,10.90
2022-07-30T12:01:00.822Z,11.00
2022-07-30T12:03:29.864Z,10.48
2022-07-30T12:05:56.921Z,12.07
2022-07-30T12:08:33.379Z,10.55
2022-07-30T12:11:03.123Z,10.57
2022-07-30T12:13:45.462Z,9.85
2022-07-30T12:16:16.274Z,8.88
2022-07-30T12:18:43.993Z,11.93
2022-07-30T12:21:17.289Z,10.75
2022-07-30T12:23:59.463Z,9.27
2022-07-30T12:26:29.319Z,9.95
2022-07-30T12:29:01.458Z,9.80
2022-07-30T12:31:28.415Z,15.95
2022-07-30T12:33:58.940Z,12.13
2022-07-30T12:36:26.093Z,11.93
2022-07-30T12:38:54.569Z,13.95
2022-07-30T12:41:21.964Z,8.95
2022-07-30T12:43:55.777Z,9.45
2022-07-30T12:46:27.035Z,12.75
2022-07-30T12:49:10.281Z,10.63
2022-07-30T12:51:59.733Z,15.50
2022-07-30T12:54:27.690Z,11.57
2022-07-30T12:56:59.406Z,8.68
2022-07-30T12:59:27.123Z,9.90
2022-07-30T13:01:54.440Z,11.27
2022-07-30T13:04:20.991Z,9.18
2022-07-30T13:07:10.585Z,15.85
2022-07-30T13:12:05.266Z,11.02
2022-07-30T13:14:32.306Z,12.73
2022-07-30T13:16:59.121Z,8.30
2022-07-30T13:19:26.980Z,9.52
2022-07-30T13:21:53.571Z,12.05
2022-07-30T13:24:20.692Z,14.05
2022-07-30T13:26:47.800Z,10.80
2022-07-30T13:29:17.172Z,9.68
2022-07-30T13:31:43.902Z,10.95
2022-07-30T13:34:12.094Z,10.63
2022-07-30T13:36:38.840Z,13.48
2022-07-30T13:39:05.289Z,11.07
2022-07-30T13:41:31.730Z,11.18
2022-07-30T13:43:58.199Z,12.60
2022-07-30T13:46:24.834Z,8.98
2022-07-30T13:48:52.105Z,9.68
2022-07-30T13:51:18.810Z,11.77
2022-07-30T13:53:45.481Z,10.65
2022-07-30T13:56:12.408Z,8.95
2022-07-30T13:58:39.695Z,10.93
2022-07-30T14:01:07.037Z,9.73
2022-07-30T14:03:33.829Z,8.75
2022-07-30T14:06:10.178Z,11.82
2022-07-30T14:08:38.708Z,10.68
2022-07-30T14:11:05.259Z,11.23
2022-07-30T14:13:31.730Z,8.10
2022-07-30T14:15:58.423Z,12.43
2022-07-30T14:18:24.871Z,9.07
2022-07-30T14:20:53.580Z,11.38
2022-07-30T14:23:20.261Z,8.10
2022-07-30T14:25:46.830Z,10.63
2022-07-30T14:28:13.915Z,14.70
2022-07-30T14:30:40.380Z,11.98
2022-07-30T14:33:06.854Z,13.13
2022-07-30T14:35:33.380Z,10.75
2022-07-30T14:37:59.936Z,11.10
2022-07-30T14:40:26.440Z,9.07
2022-07-30T14:42:52.908Z,12.60
2022-07-30T14:45:23.089Z,8.25
2022-07-30T14:47:49.512Z,12.38
2022-07-30T14:50:15.947Z,9.02
2022-07-30T14:52:42.564Z,8.38
2022-07-30T14:55:09.945Z,11.95
2022-07-30T14:57:36.725Z,13.40
2022-07-30T15:00:07.488Z,9.65
2022-07-30T15:02:34.399Z,12.23
2022-07-30T15:05:00.816Z,10.45
2022-07-30T15:07:27.658Z,9.73
2022-07-30T15:09:54.055Z,11.60
2022-07-30T15:12:23.583Z,8.23
2022-07-30T15:14:53.879Z,10.43
2022-07-30T15:17:20.458Z,9.13
2022-07-30T15:19:50.304Z,12.38
2022-07-30T15:22:18.243Z,8.80
2022-07-30T15:24:44.736Z,10.65
2022-07-30T15:27:11.569Z,10.00
2022-07-30T15:29:38.213Z,10.43
2022-07-30T15:32:05.275Z,9.70
2022-07-30T15:34:34.481Z,9.70
2022-07-30T15:37:02.623Z,12.35
2022-07-30T15:39:32.222Z,11.13
2022-07-30T15:44:32.889Z,10.18
2022-07-30T15:47:00.306Z,7.72
2022-07-30T15:49:27.806Z,8.15
2022-07-30T15:51:54.648Z,13.18
2022-07-30T15:54:23.430Z,7.72
2022-07-30T15:56:51.178Z,11.05
2022-07-30T15:59:18.014Z,12.55
2022-07-30T16:01:44.624Z,15.05
2022-07-30T16:04:19.499Z,8.80
2022-07-30T16:06:47.594Z,9.32
2022-07-30T16:09:14.681Z,8.52
2022-07-30T16:11:43.002Z,10.52
2022-07-30T16:14:10.008Z,10.93
2022-07-30T16:16:36.736Z,10.45
2022-07-30T16:19:03.358Z,10.63
2022-07-30T16:21:29.928Z,12.50
2022-07-30T16:23:56.648Z,10.07
2022-07-30T16:26:23.116Z,8.43
2022-07-30T16:28:49.882Z,10.60
2022-07-30T16:31:16.564Z,9.82
2022-07-30T16:33:43.208Z,13.05
2022-07-30T16:36:10.065Z,9.63
2022-07-30T16:38:36.594Z,9.60
2022-07-30T16:41:03.650Z,11.32
2022-07-30T16:43:31.843Z,10.38
2022-07-30T16:45:59.454Z,12.57
2022-07-30T16:48:26.642Z,13.50
2022-07-30T16:50:53.285Z,9.50
2022-07-30T16:53:20.071Z,9.15
2022-07-30T16:55:47.002Z,10.18
2022-07-30T16:58:13.652Z,10.32
2022-07-30T17:00:40.220Z,12.30
2022-07-30T17:03:06.869Z,10.50
2022-07-30T17:05:33.566Z,9.57
2022-07-30T17:08:00.186Z,10.02
2022-07-30T17:10:27.268Z,9.10
2022-07-30T17:12:56.958Z,11.18
2022-07-30T17:15:32.211Z,11.10
2022-07-30T17:18:03.050Z,12.73
2022-07-30T17:20:31.249Z,10.23
2022-07-30T17:22:57.837Z,10.00
2022-07-30T17:25:28.341Z,11.85
2022-07-30T17:27:56.263Z,12.10
2022-07-30T17:30:23.588Z,13.02
2022-07-30T17:32:50.965Z,15.90
2022-07-30T17:35:17.731Z,11.73
2022-07-30T17:37:44.359Z,15.15
2022-07-30T17:40:28.843Z,11.68
2022-07-30T17:43:03.231Z,11.23
2022-07-30T17:45:30.712Z,11.75
2022-07-30T17:47:57.853Z,13.55
2022-07-30T17:50:24.291Z,13.77
2022-07-30T17:52:50.841Z,13.65
2022-07-30T17:55:17.395Z,9.70
2022-07-30T17:57:43.804Z,11.00
2022-07-30T18:00:10.976Z,9.75
2022-07-30T18:02:37.416Z,13.77
2022-07-30T18:05:04.192Z,9.77
2022-07-30T18:07:31.088Z,11.13
2022-07-30T18:09:57.593Z,13.45
2022-07-30T18:12:24.085Z,10.25
2022-07-30T18:14:50.499Z,9.40
2022-07-30T18:17:16.932Z,13.15
2022-07-30T18:19:43.464Z,12.40
2022-07-30T18:22:10.062Z,10.95
2022-07-30T18:24:40.360Z,12.70
2022-07-30T18:27:11.586Z,10.80
2022-07-30T18:29:38.173Z,10.32
2022-07-30T18:32:05.486Z,10.00
2022-07-30T18:34:32.382Z,11.20
2022-07-30T18:36:58.877Z,16.05
2022-07-30T18:39:25.377Z,10.80
2022-07-30T18:41:51.914Z,11.77
2022-07-30T18:44:18.446Z,10.45
2022-07-30T18:46:45.463Z,11.07
2022-07-30T18:49:34.270Z,11.35
2022-07-30T18:52:00.355Z,11.45
2022-07-30T18:54:27.300Z,11.90
2022-07-30T18:56:53.750Z,10.60
2022-07-30T18:59:20.208Z,10.10
2022-07-30T19:01:46.637Z,11.95
2022-07-30T19:04:13.258Z,14.55
2022-07-30T19:06:39.945Z,9.48
2022-07-30T19:09:10.120Z,9.57
2022-07-30T19:11:45.266Z,9.40
2022-07-30T19:14:13.109Z,10.20
2022-07-30T19:16:40.586Z,12.45
2022-07-30T19:19:07.074Z,13.25
2022-07-30T19:21:33.810Z,16.05
2022-07-30T19:24:00.473Z,9.40
2022-07-30T19:26:26.978Z,16.45
2022-07-30T19:28:53.388Z,12.60
2022-07-30T19:31:19.887Z,11.68
2022-07-30T19:33:46.352Z,9.00
2022-07-30T19:36:15.095Z,10.60
2022-07-30T19:38:45.053Z,10.18
2022-07-30T19:41:11.979Z,12.38
2022-07-30T19:43:40.592Z,12.77
2022-07-30T19:46:07.083Z,15.20
2022-07-30T19:48:36.085Z,10.80
2022-07-30T19:51:03.461Z,10.85
2022-07-30T19:53:34.105Z,12.27
2022-07-30T19:58:36.607Z,14.80
2022-07-30T20:01:03.979Z,15.32
2022-07-30T20:03:35.663Z,15.13
2022-07-30T20:06:02.258Z,16.60
2022-07-30T20:08:29.555Z,17.40
2022-07-30T20:10:57.755Z,17.02
2022-07-30T20:13:44.518Z,12.30
2022-07-30T20:16:14.311Z,14.43
2022-07-30T20:18:42.878Z,16.10
2022-07-30T20:21:15.187Z,16.05
2022-07-30T20:23:43.454Z,12.55
2022-07-30T20:26:13.700Z,13.80
2022-07-30T20:28:42.103Z,16.13
2022-07-30T20:31:08.802Z,21.25
2022-07-30T20:33:38.083Z,17.67
2022-07-30T20:36:06.087Z,14.77
2022-07-30T20:38:37.590Z,21.65
2022-07-30T20:41:09.930Z,18.55
2022-07-30T20:43:51.592Z,21.23
2022-07-30T20:46:20.332Z,20.67
2022-07-30T20:48:47.131Z,24.42
2022-07-30T20:51:14.003Z,26.33
2022-07-30T20:53:41.881Z,30.55
2022-07-30T20:56:12.211Z,28.35
2022-07-30T20:58:40.901Z,29.35
2022-07-30T21:01:07.790Z,30.45
2022-07-30T21:03:34.292Z,29.35
2022-07-30T21:06:02.596Z,31.17
2022-07-30T21:08:29.145Z,25.92
2022-07-30T21:10:57.647Z,32.30
2022-07-30T21:13:26.996Z,41.05
2022-07-30T21:16:02.355Z,34.47
2022-07-30T21:18:29.773Z,34.75
2022-07-30T21:20:57.329Z,34.00
2022-07-30T21:23:23.866Z,40.95
2022-07-30T21:26:01.139Z,35.58
2022-07-30T21:28:35.248Z,38.33
2022-07-30T21:31:07.078Z,35.47
2022-07-30T21:33:36.186Z,38.15
2022-07-30T21:36:02.721Z,40.25
2022-07-30T21:38:31.754Z,41.10
2022-07-30T21:40:58.523Z,36.97
2022-07-30T21:43:29.995Z,37.30
2022-07-30T21:45:57.628Z,40.85
2022-07-30T21:48:24.438Z,37.70
2022-07-30T21:50:51.063Z,39.10
2022-07-30T21:53:17.474Z,50.30
2022-07-30T21:55:56.886Z,39.55
2022-07-30T21:58:26.360Z,42.25
2022-07-30T22:00:54.968Z,41.83
2022-07-30T22:04:03.247Z,49.03
2022-07-30T22:06:12.679Z,47.28
2022-07-30T22:08:39.648Z,46.92
2022-07-30T22:11:09.055Z,48.17
2022-07-30T22:13:36.195Z,52.05
2022-07-30T22:16:21.325Z,55.70
2022-07-30T22:18:48.054Z,51.63
2022-07-30T22:21:14.665Z,51.63
2022-07-30T22:23:41.353Z,49.05
2022-07-30T22:26:23.702Z,47.35
2022-07-30T22:28:53.201Z,53.08
2022-07-30T22:31:20.952Z,46.08
2022-07-30T22:33:49.793Z,46.83
2022-07-30T22:36:17.828Z,37.95
2022-07-30T22:41:39.184Z,38.70
2022-07-30T22:44:06.644Z,41.45
2022-07-30T22:46:35.963Z,37.90
2022-07-30T22:49:04.416Z,40.00
2022-07-30T22:52:00.848Z,35.33
2022-07-30T22:54:18.002Z,37.20
2022-07-30T22:56:46.277Z,38.00
2022-07-30T22:59:13.664Z,32.55
2022-07-30T23:01:43.521Z,39.53
2022-07-30T23:04:10.369Z,40.70
2022-07-30T23:06:37.211Z,35.08
2022-07-30T23:09:07.643Z,33.80
2022-07-30T23:11:38.733Z,34.97
2022-07-30T23:12:29.024Z,41.60
2022-07-30T23:14:06.632Z,37.38
2022-07-30T23:16:33.102Z,33.63
2022-07-30T23:18:59.869Z,38.33
2022-07-30T23:21:26.316Z,40.85
2022-07-30T23:23:53.064Z,34.20
2022-07-30T23:26:19.593Z,28.40
2022-07-30T23:28:47.271Z,33.55
2022-07-30T23:31:13.770Z,32.33
2022-07-30T23:33:43.091Z,26.98
2022-07-30T23:36:09.839Z,31.30
2022-07-30T23:38:36.935Z,32.08
2022-07-30T23:41:04.279Z,35.97
2022-07-30T23:43:31.475Z,30.35
2022-07-30T23:45:58.182Z,29.02
2022-07-30T23:48:24.667Z,37.80
2022-07-30T23:50:51.864Z,27.13
2022-07-30T23:53:18.509Z,29.42
2022-07-30T23:55:47.585Z,30.00
2022-07-30T23:58:14.752Z,29.80
